Crouseville, Maine
Current Conditions -  °F | °C
As of 2:55 AM on Friday 24 Oct 2014 (Local Time) from KPQI Reporting Station
Overcast Overcast  
Wind Chill: 33°   Ceiling: 6500
Heat Index: 41°   Visibility: 10mi
Dew Point: 36°   Wind: 15mph
Humidity: 81%   Direction: 20°NNE
Pressure: 29.82"   Gusts: NA
Location:  46.75°N, 68.1°W
Report Text: KPQI 240655Z AUTO 02013KT 10SM FEW032 OVC065 05/02 A2982 RMK AO1 P0002
Loading
Personal Weather Stations






























Interactive Weather Map
Tropical Storm Tracking
New forecast layout! Learn more

10-Day Weather Forecast

Advertisements
Track Severe Weather on mobile